Denver, Colorado
Traffic Map
Current Weather Conditions
Denver, Colorado
Scattered Clouds
Scattered Clouds
-4°
Feels Like: -8°
Wind Chill: -8° Ceiling: Unl
Heat Index: -4° Visibility: 10mi
Dew Point: -4° Wind: 6mph
Humidity: 98% Direction: 210° (SSW)
Pressure: 29.97in Gusts: 0mph
Raw Report DataKBKF 180758Z 21005KT 10SM FEW040 SCT070 M04/M04 A2997 RMK AO2A SLP158 T10391042
Traffic Incident Summary
Active as of:
Severity:
Category:
InformationThere was an issue retrieving the traffic information for this location. Please try a different location or try again shortly.
Advertisements
Track Severe Weather on mobile